sensor_id;sensor_type;location;lat;lon;timestamp;P1;durP1;ratioP1;P2;durP2;ratioP2
12228;SDS011;6177;52.402;9.800;2023-04-25T00:00:32;6.73;;;3.90;;
12228;SDS011;6177;52.402;9.800;2023-04-25T00:03:22;8.47;;;4.80;;
12228;SDS011;6177;52.402;9.800;2023-04-25T00:06:15;4.67;;;4.00;;
12228;SDS011;6177;52.402;9.800;2023-04-25T00:09:06;5.00;;;3.90;;
12228;SDS011;6177;52.402;9.800;2023-04-25T00:12:00;6.07;;;4.13;;
12228;SDS011;6177;52.402;9.800;2023-04-25T00:14:51;5.27;;;4.47;;
12228;SDS011;6177;52.402;9.800;2023-04-25T00:17:42;6.37;;;4.50;;
12228;SDS011;6177;52.402;9.800;2023-04-25T00:20:33;6.53;;;4.87;;
12228;SDS011;6177;52.402;9.800;2023-04-25T00:23:24;7.57;;;5.23;;
12228;SDS011;6177;52.402;9.800;2023-04-25T00:26:15;7.67;;;3.80;;
12228;SDS011;6177;52.402;9.800;2023-04-25T00:29:06;8.53;;;5.03;;
12228;SDS011;6177;52.402;9.800;2023-04-25T00:31:57;7.63;;;4.00;;
12228;SDS011;6177;52.402;9.800;2023-04-25T00:34:48;5.33;;;4.47;;
12228;SDS011;6177;52.402;9.800;2023-04-25T00:37:39;7.03;;;4.27;;
12228;SDS011;6177;52.402;9.800;2023-04-25T00:40:30;6.93;;;4.43;;
12228;SDS011;6177;52.402;9.800;2023-04-25T00:43:21;5.50;;;3.80;;
12228;SDS011;6177;52.402;9.800;2023-04-25T00:46:12;5.60;;;3.90;;
12228;SDS011;6177;52.402;9.800;2023-04-25T00:49:04;4.10;;;3.27;;
12228;SDS011;6177;52.402;9.800;2023-04-25T00:51:55;6.90;;;3.50;;
12228;SDS011;6177;52.402;9.800;2023-04-25T00:54:46;6.43;;;5.30;;
12228;SDS011;6177;52.402;9.800;2023-04-25T00:57:37;7.27;;;3.83;;
12228;SDS011;6177;52.402;9.800;2023-04-25T01:00:28;8.80;;;5.50;;
12228;SDS011;6177;52.402;9.800;2023-04-25T01:03:19;6.93;;;4.30;;
12228;SDS011;6177;52.402;9.800;2023-04-25T01:06:10;8.13;;;4.87;;
12228;SDS011;6177;52.402;9.800;2023-04-25T01:09:01;6.80;;;3.90;;
12228;SDS011;6177;52.402;9.800;2023-04-25T01:11:53;8.47;;;4.30;;
12228;SDS011;6177;52.402;9.800;2023-04-25T01:14:44;5.57;;;4.57;;
12228;SDS011;6177;52.402;9.800;2023-04-25T01:17:35;4.83;;;3.90;;
12228;SDS011;6177;52.402;9.800;2023-04-25T01:20:26;7.53;;;4.37;;
12228;SDS011;6177;52.402;9.800;2023-04-25T01:23:18;5.03;;;3.30;;
12228;SDS011;6177;52.402;9.800;2023-04-25T01:26:12;9.83;;;5.30;;
12228;SDS011;6177;52.402;9.800;2023-04-25T01:29:03;9.33;;;5.57;;
12228;SDS011;6177;52.402;9.800;2023-04-25T01:31:54;6.57;;;4.10;;
12228;SDS011;6177;52.402;9.800;2023-04-25T01:34:45;8.40;;;4.47;;
12228;SDS011;6177;52.402;9.800;2023-04-25T01:37:37;5.23;;;4.67;;
12228;SDS011;6177;52.402;9.800;2023-04-25T01:40:31;9.47;;;4.87;;
12228;SDS011;6177;52.402;9.800;2023-04-25T01:43:22;8.97;;;4.43;;
12228;SDS011;6177;52.402;9.800;2023-04-25T01:46:13;9.00;;;5.33;;
12228;SDS011;6177;52.402;9.800;2023-04-25T01:49:04;5.40;;;3.63;;
12228;SDS011;6177;52.402;9.800;2023-04-25T01:51:57;8.40;;;4.87;;
12228;SDS011;6177;52.402;9.800;2023-04-25T01:54:48;8.10;;;4.73;;
12228;SDS011;6177;52.402;9.800;2023-04-25T01:57:40;5.67;;;4.00;;
12228;SDS011;6177;52.402;9.800;2023-04-25T02:00:29;5.47;;;4.30;;
12228;SDS011;6177;52.402;9.800;2023-04-25T02:03:21;5.27;;;4.60;;
12228;SDS011;6177;52.402;9.800;2023-04-25T02:06:12;9.83;;;5.90;;
12228;SDS011;6177;52.402;9.800;2023-04-25T02:09:07;5.07;;;3.70;;
12228;SDS011;6177;52.402;9.800;2023-04-25T02:11:58;4.70;;;4.17;;
12228;SDS011;6177;52.402;9.800;2023-04-25T02:14:52;10.47;;;4.97;;
12228;SDS011;6177;52.402;9.800;2023-04-25T02:17:50;8.10;;;4.83;;
12228;SDS011;6177;52.402;9.800;2023-04-25T02:20:43;5.17;;;3.40;;
12228;SDS011;6177;52.402;9.800;2023-04-25T02:23:34;11.13;;;6.70;;
12228;SDS011;6177;52.402;9.800;2023-04-25T02:26:25;6.10;;;5.47;;
12228;SDS011;6177;52.402;9.800;2023-04-25T02:29:16;7.30;;;5.93;;
12228;SDS011;6177;52.402;9.800;2023-04-25T02:32:07;9.67;;;5.43;;
12228;SDS011;6177;52.402;9.800;2023-04-25T02:34:58;10.87;;;5.53;;
12228;SDS011;6177;52.402;9.800;2023-04-25T02:37:54;7.63;;;5.13;;
12228;SDS011;6177;52.402;9.800;2023-04-25T02:40:45;5.00;;;4.40;;
12228;SDS011;6177;52.402;9.800;2023-04-25T02:43:36;7.43;;;4.27;;
12228;SDS011;6177;52.402;9.800;2023-04-25T02:46:27;6.20;;;3.90;;
12228;SDS011;6177;52.402;9.800;2023-04-25T02:49:18;10.43;;;3.87;;
12228;SDS011;6177;52.402;9.800;2023-04-25T02:52:09;8.40;;;3.87;;
12228;SDS011;6177;52.402;9.800;2023-04-25T02:55:00;10.30;;;3.80;;
12228;SDS011;6177;52.402;9.800;2023-04-25T02:57:52;8.43;;;4.50;;
12228;SDS011;6177;52.402;9.800;2023-04-25T03:00:54;10.20;;;4.10;;
12228;SDS011;6177;52.402;9.800;2023-04-25T03:03:45;9.73;;;4.27;;
12228;SDS011;6177;52.402;9.800;2023-04-25T03:06:36;12.60;;;4.17;;
12228;SDS011;6177;52.402;9.800;2023-04-25T03:09:27;9.83;;;3.93;;
12228;SDS011;6177;52.402;9.800;2023-04-25T03:12:18;12.20;;;4.50;;
12228;SDS011;6177;52.402;9.800;2023-04-25T03:15:09;13.20;;;4.53;;
12228;SDS011;6177;52.402;9.800;2023-04-25T03:18:00;18.50;;;4.90;;
12228;SDS011;6177;52.402;9.800;2023-04-25T03:20:51;11.07;;;4.27;;
12228;SDS011;6177;52.402;9.800;2023-04-25T03:23:42;14.83;;;4.80;;
12228;SDS011;6177;52.402;9.800;2023-04-25T03:26:33;17.97;;;4.47;;
12228;SDS011;6177;52.402;9.800;2023-04-25T03:29:24;16.33;;;4.97;;
12228;SDS011;6177;52.402;9.800;2023-04-25T03:32:17;14.23;;;4.33;;
12228;SDS011;6177;52.402;9.800;2023-04-25T03:35:08;10.10;;;4.37;;
12228;SDS011;6177;52.402;9.800;2023-04-25T03:37:59;15.53;;;4.80;;
12228;SDS011;6177;52.402;9.800;2023-04-25T03:40:54;11.50;;;4.03;;
12228;SDS011;6177;52.402;9.800;2023-04-25T03:43:58;15.17;;;4.57;;
12228;SDS011;6177;52.402;9.800;2023-04-25T03:46:49;10.30;;;3.57;;
12228;SDS011;6177;52.402;9.800;2023-04-25T03:49:40;9.63;;;4.40;;
12228;SDS011;6177;52.402;9.800;2023-04-25T03:52:31;9.20;;;3.63;;
12228;SDS011;6177;52.402;9.800;2023-04-25T03:55:22;11.37;;;4.17;;
12228;SDS011;6177;52.402;9.800;2023-04-25T03:58:13;12.67;;;4.23;;
12228;SDS011;6177;52.402;9.800;2023-04-25T04:01:03;12.20;;;4.20;;
12228;SDS011;6177;52.402;9.800;2023-04-25T04:03:58;8.57;;;3.97;;
12228;SDS011;6177;52.402;9.800;2023-04-25T04:06:49;11.70;;;4.10;;
12228;SDS011;6177;52.402;9.800;2023-04-25T04:09:47;14.03;;;4.00;;
12228;SDS011;6177;52.402;9.800;2023-04-25T04:12:44;13.47;;;4.30;;
12228;SDS011;6177;52.402;9.800;2023-04-25T04:15:36;14.17;;;4.43;;
12228;SDS011;6177;52.402;9.800;2023-04-25T04:18:26;14.10;;;3.93;;
12228;SDS011;6177;52.402;9.800;2023-04-25T04:21:18;14.33;;;4.73;;
12228;SDS011;6177;52.402;9.800;2023-04-25T04:24:09;14.03;;;4.67;;
12228;SDS011;6177;52.402;9.800;2023-04-25T04:27:12;15.33;;;4.47;;
12228;SDS011;6177;52.402;9.800;2023-04-25T04:30:18;16.53;;;5.20;;
12228;SDS011;6177;52.402;9.800;2023-04-25T04:33:17;15.13;;;4.80;;
12228;SDS011;6177;52.402;9.800;2023-04-25T04:36:10;18.20;;;4.97;;
12228;SDS011;6177;52.402;9.800;2023-04-25T04:39:01;22.03;;;3.90;;
12228;SDS011;6177;52.402;9.800;2023-04-25T04:42:11;18.63;;;5.07;;
12228;SDS011;6177;52.402;9.800;2023-04-25T04:45:21;11.87;;;5.03;;
12228;SDS011;6177;52.402;9.800;2023-04-25T04:48:33;10.90;;;3.83;;
12228;SDS011;6177;52.402;9.800;2023-04-25T04:51:41;12.90;;;3.90;;
12228;SDS011;6177;52.402;9.800;2023-04-25T04:54:54;18.37;;;4.53;;
12228;SDS011;6177;52.402;9.800;2023-04-25T04:58:11;14.97;;;4.07;;
12228;SDS011;6177;52.402;9.800;2023-04-25T05:01:15;13.17;;;4.10;;
12228;SDS011;6177;52.402;9.800;2023-04-25T05:04:28;12.47;;;4.33;;
12228;SDS011;6177;52.402;9.800;2023-04-25T05:07:41;15.07;;;4.63;;
12228;SDS011;6177;52.402;9.800;2023-04-25T05:10:52;13.10;;;3.90;;
12228;SDS011;6177;52.402;9.800;2023-04-25T05:14:18;15.03;;;4.70;;
12228;SDS011;6177;52.402;9.800;2023-04-25T05:17:28;14.00;;;4.67;;
12228;SDS011;6177;52.402;9.800;2023-04-25T05:20:54;14.83;;;3.57;;
12228;SDS011;6177;52.402;9.800;2023-04-25T05:24:07;14.67;;;4.10;;
12228;SDS011;6177;52.402;9.800;2023-04-25T05:26:58;15.73;;;4.07;;
12228;SDS011;6177;52.402;9.800;2023-04-25T05:30:21;13.60;;;4.20;;
12228;SDS011;6177;52.402;9.800;2023-04-25T05:33:31;10.97;;;4.10;;
12228;SDS011;6177;52.402;9.800;2023-04-25T05:36:22;11.23;;;4.33;;
12228;SDS011;6177;52.402;9.800;2023-04-25T05:39:12;16.30;;;5.23;;
12228;SDS011;6177;52.402;9.800;2023-04-25T05:42:36;14.23;;;3.97;;
12228;SDS011;6177;52.402;9.800;2023-04-25T05:45:45;9.10;;;3.63;;
12228;SDS011;6177;52.402;9.800;2023-04-25T05:48:52;8.67;;;2.80;;
12228;SDS011;6177;52.402;9.800;2023-04-25T05:52:01;14.67;;;3.50;;
12228;SDS011;6177;52.402;9.800;2023-04-25T05:54:55;12.37;;;3.77;;
12228;SDS011;6177;52.402;9.800;2023-04-25T05:57:46;8.83;;;2.73;;
12228;SDS011;6177;52.402;9.800;2023-04-25T06:00:38;9.47;;;3.43;;
12228;SDS011;6177;52.402;9.800;2023-04-25T06:03:29;7.70;;;2.90;;
12228;SDS011;6177;52.402;9.800;2023-04-25T06:06:24;10.37;;;3.30;;
12228;SDS011;6177;52.402;9.800;2023-04-25T06:09:15;11.53;;;3.60;;
12228;SDS011;6177;52.402;9.800;2023-04-25T06:12:06;10.03;;;3.17;;
12228;SDS011;6177;52.402;9.800;2023-04-25T06:14:57;12.67;;;2.97;;
12228;SDS011;6177;52.402;9.800;2023-04-25T06:17:48;9.90;;;3.07;;
12228;SDS011;6177;52.402;9.800;2023-04-25T06:20:39;8.83;;;3.30;;
12228;SDS011;6177;52.402;9.800;2023-04-25T06:23:30;7.70;;;3.50;;
12228;SDS011;6177;52.402;9.800;2023-04-25T06:26:26;11.50;;;3.87;;
12228;SDS011;6177;52.402;9.800;2023-04-25T06:29:15;12.43;;;4.00;;
12228;SDS011;6177;52.402;9.800;2023-04-25T06:32:07;11.37;;;4.40;;
12228;SDS011;6177;52.402;9.800;2023-04-25T06:34:58;11.07;;;3.67;;
12228;SDS011;6177;52.402;9.800;2023-04-25T06:37:49;12.27;;;3.20;;
12228;SDS011;6177;52.402;9.800;2023-04-25T06:40:43;12.40;;;3.53;;
12228;SDS011;6177;52.402;9.800;2023-04-25T06:43:34;7.73;;;3.13;;
12228;SDS011;6177;52.402;9.800;2023-04-25T06:46:27;9.70;;;3.13;;
12228;SDS011;6177;52.402;9.800;2023-04-25T06:49:19;8.30;;;3.60;;
12228;SDS011;6177;52.402;9.800;2023-04-25T06:52:10;9.13;;;3.33;;
12228;SDS011;6177;52.402;9.800;2023-04-25T06:55:02;11.83;;;3.60;;
12228;SDS011;6177;52.402;9.800;2023-04-25T06:58:13;11.00;;;3.73;;
12228;SDS011;6177;52.402;9.800;2023-04-25T07:01:16;9.30;;;2.67;;
12228;SDS011;6177;52.402;9.800;2023-04-25T07:04:06;6.20;;;2.60;;
12228;SDS011;6177;52.402;9.800;2023-04-25T07:06:59;8.97;;;3.10;;
12228;SDS011;6177;52.402;9.800;2023-04-25T07:10:11;9.60;;;3.20;;
12228;SDS011;6177;52.402;9.800;2023-04-25T07:13:02;8.70;;;3.03;;
12228;SDS011;6177;52.402;9.800;2023-04-25T07:15:54;9.63;;;2.93;;
12228;SDS011;6177;52.402;9.800;2023-04-25T07:18:47;7.10;;;3.10;;
12228;SDS011;6177;52.402;9.800;2023-04-25T07:21:38;7.63;;;2.50;;
12228;SDS011;6177;52.402;9.800;2023-04-25T07:24:31;6.60;;;2.90;;
12228;SDS011;6177;52.402;9.800;2023-04-25T07:27:23;6.73;;;3.20;;
12228;SDS011;6177;52.402;9.800;2023-04-25T07:30:21;6.97;;;3.20;;
12228;SDS011;6177;52.402;9.800;2023-04-25T07:33:13;7.47;;;2.70;;
12228;SDS011;6177;52.402;9.800;2023-04-25T07:36:04;5.33;;;2.60;;
12228;SDS011;6177;52.402;9.800;2023-04-25T07:38:55;6.87;;;2.30;;
12228;SDS011;6177;52.402;9.800;2023-04-25T07:41:46;7.17;;;2.70;;
12228;SDS011;6177;52.402;9.800;2023-04-25T07:44:42;7.17;;;3.03;;
12228;SDS011;6177;52.402;9.800;2023-04-25T07:47:35;6.37;;;2.70;;
12228;SDS011;6177;52.402;9.800;2023-04-25T07:50:26;5.23;;;2.30;;
12228;SDS011;6177;52.402;9.800;2023-04-25T07:53:17;7.07;;;2.70;;
12228;SDS011;6177;52.402;9.800;2023-04-25T07:56:30;5.07;;;2.23;;
12228;SDS011;6177;52.402;9.800;2023-04-25T07:59:20;9.57;;;2.57;;
12228;SDS011;6177;52.402;9.800;2023-04-25T08:02:12;5.60;;;2.30;;
12228;SDS011;6177;52.402;9.800;2023-04-25T08:05:03;9.70;;;2.73;;
12228;SDS011;6177;52.402;9.800;2023-04-25T08:07:54;8.70;;;2.67;;
12228;SDS011;6177;52.402;9.800;2023-04-25T08:10:47;6.20;;;3.13;;
12228;SDS011;6177;52.402;9.800;2023-04-25T08:13:41;5.67;;;2.67;;
12228;SDS011;6177;52.402;9.800;2023-04-25T08:16:32;5.17;;;1.90;;
12228;SDS011;6177;52.402;9.800;2023-04-25T08:19:23;9.70;;;2.83;;
12228;SDS011;6177;52.402;9.800;2023-04-25T08:22:14;5.87;;;2.47;;
12228;SDS011;6177;52.402;9.800;2023-04-25T08:25:15;5.80;;;2.43;;
12228;SDS011;6177;52.402;9.800;2023-04-25T08:28:07;4.20;;;2.00;;
12228;SDS011;6177;52.402;9.800;2023-04-25T08:30:58;4.20;;;1.70;;
12228;SDS011;6177;52.402;9.800;2023-04-25T08:33:52;4.13;;;2.30;;
12228;SDS011;6177;52.402;9.800;2023-04-25T08:36:48;6.37;;;2.10;;
12228;SDS011;6177;52.402;9.800;2023-04-25T08:39:57;3.77;;;1.37;;
12228;SDS011;6177;52.402;9.800;2023-04-25T08:43:00;9.00;;;2.40;;
12228;SDS011;6177;52.402;9.800;2023-04-25T08:45:51;4.23;;;1.83;;
12228;SDS011;6177;52.402;9.800;2023-04-25T08:49:01;7.10;;;2.60;;
12228;SDS011;6177;52.402;9.800;2023-04-25T08:51:52;4.40;;;1.93;;
12228;SDS011;6177;52.402;9.800;2023-04-25T08:54:46;5.53;;;2.00;;
12228;SDS011;6177;52.402;9.800;2023-04-25T08:57:40;9.77;;;2.27;;
12228;SDS011;6177;52.402;9.800;2023-04-25T09:00:33;3.67;;;1.70;;
12228;SDS011;6177;52.402;9.800;2023-04-25T09:03:23;3.17;;;2.03;;
12228;SDS011;6177;52.402;9.800;2023-04-25T09:06:14;4.20;;;2.10;;
12228;SDS011;6177;52.402;9.800;2023-04-25T09:09:07;5.00;;;2.47;;
12228;SDS011;6177;52.402;9.800;2023-04-25T09:11:59;3.20;;;1.50;;
12228;SDS011;6177;52.402;9.800;2023-04-25T09:15:11;2.73;;;1.40;;
12228;SDS011;6177;52.402;9.800;2023-04-25T09:21:22;3.57;;;1.37;;
12228;SDS011;6177;52.402;9.800;2023-04-25T09:24:13;5.07;;;1.73;;
12228;SDS011;6177;52.402;9.800;2023-04-25T09:27:05;4.57;;;1.47;;
12228;SDS011;6177;52.402;9.800;2023-04-25T09:30:00;2.70;;;1.20;;
12228;SDS011;6177;52.402;9.800;2023-04-25T09:33:08;4.17;;;1.53;;
12228;SDS011;6177;52.402;9.800;2023-04-25T09:36:04;2.40;;;0.77;;
12228;SDS011;6177;52.402;9.800;2023-04-25T09:39:22;3.37;;;0.90;;
12228;SDS011;6177;52.402;9.800;2023-04-25T09:42:27;3.67;;;1.87;;
12228;SDS011;6177;52.402;9.800;2023-04-25T09:45:19;1.93;;;1.10;;
12228;SDS011;6177;52.402;9.800;2023-04-25T09:48:09;1.37;;;1.13;;
12228;SDS011;6177;52.402;9.800;2023-04-25T09:53:58;3.70;;;1.13;;
12228;SDS011;6177;52.402;9.800;2023-04-25T09:56:56;2.37;;;0.87;;
12228;SDS011;6177;52.402;9.800;2023-04-25T09:59:49;2.60;;;1.13;;
12228;SDS011;6177;52.402;9.800;2023-04-25T10:02:42;2.70;;;1.17;;
12228;SDS011;6177;52.402;9.800;2023-04-25T10:05:37;4.20;;;1.10;;
12228;SDS011;6177;52.402;9.800;2023-04-25T10:08:30;3.93;;;1.33;;
12228;SDS011;6177;52.402;9.800;2023-04-25T10:11:23;1.77;;;1.03;;
12228;SDS011;6177;52.402;9.800;2023-04-25T10:14:16;3.43;;;1.10;;
12228;SDS011;6177;52.402;9.800;2023-04-25T10:17:08;2.27;;;1.00;;
12228;SDS011;6177;52.402;9.800;2023-04-25T10:20:01;2.13;;;1.30;;
12228;SDS011;6177;52.402;9.800;2023-04-25T10:23:10;1.43;;;0.97;;
12228;SDS011;6177;52.402;9.800;2023-04-25T10:26:03;3.20;;;1.10;;
12228;SDS011;6177;52.402;9.800;2023-04-25T10:28:58;2.03;;;1.00;;
12228;SDS011;6177;52.402;9.800;2023-04-25T10:31:50;1.77;;;1.00;;
12228;SDS011;6177;52.402;9.800;2023-04-25T10:34:42;2.87;;;1.37;;
12228;SDS011;6177;52.402;9.800;2023-04-25T10:37:34;3.13;;;1.60;;
12228;SDS011;6177;52.402;9.800;2023-04-25T10:40:25;3.77;;;1.87;;
12228;SDS011;6177;52.402;9.800;2023-04-25T10:46:40;2.33;;;1.60;;
12228;SDS011;6177;52.402;9.800;2023-04-25T10:52:29;3.63;;;1.20;;
12228;SDS011;6177;52.402;9.800;2023-04-25T10:55:21;2.23;;;1.20;;
12228;SDS011;6177;52.402;9.800;2023-04-25T10:58:12;4.83;;;1.80;;
12228;SDS011;6177;52.402;9.800;2023-04-25T11:01:03;4.17;;;1.80;;
12228;SDS011;6177;52.402;9.800;2023-04-25T11:03:57;5.27;;;2.30;;
12228;SDS011;6177;52.402;9.800;2023-04-25T11:07:00;2.77;;;1.20;;
12228;SDS011;6177;52.402;9.800;2023-04-25T11:09:56;1.53;;;1.07;;
12228;SDS011;6177;52.402;9.800;2023-04-25T11:12:47;4.03;;;1.37;;
12228;SDS011;6177;52.402;9.800;2023-04-25T11:15:38;2.30;;;1.20;;
12228;SDS011;6177;52.402;9.800;2023-04-25T11:18:28;2.83;;;0.80;;
12228;SDS011;6177;52.402;9.800;2023-04-25T11:21:19;3.53;;;1.43;;
12228;SDS011;6177;52.402;9.800;2023-04-25T11:24:10;1.23;;;0.83;;
12228;SDS011;6177;52.402;9.800;2023-04-25T11:27:02;1.90;;;0.83;;
12228;SDS011;6177;52.402;9.800;2023-04-25T11:29:53;3.03;;;1.07;;
12228;SDS011;6177;52.402;9.800;2023-04-25T11:32:44;2.87;;;1.47;;
12228;SDS011;6177;52.402;9.800;2023-04-25T11:35:35;3.93;;;1.47;;
12228;SDS011;6177;52.402;9.800;2023-04-25T11:38:26;5.73;;;2.47;;
12228;SDS011;6177;52.402;9.800;2023-04-25T11:41:17;3.13;;;1.77;;
12228;SDS011;6177;52.402;9.800;2023-04-25T11:44:09;2.77;;;1.50;;
12228;SDS011;6177;52.402;9.800;2023-04-25T11:47:00;1.37;;;1.27;;
12228;SDS011;6177;52.402;9.800;2023-04-25T11:52:57;4.07;;;1.30;;
12228;SDS011;6177;52.402;9.800;2023-04-25T11:55:52;1.93;;;1.53;;
12228;SDS011;6177;52.402;9.800;2023-04-25T11:59:00;1.93;;;1.33;;
12228;SDS011;6177;52.402;9.800;2023-04-25T12:01:54;2.43;;;1.40;;
12228;SDS011;6177;52.402;9.800;2023-04-25T12:04:45;4.80;;;1.77;;
12228;SDS011;6177;52.402;9.800;2023-04-25T12:07:37;4.10;;;1.50;;
12228;SDS011;6177;52.402;9.800;2023-04-25T12:10:31;3.27;;;1.43;;
12228;SDS011;6177;52.402;9.800;2023-04-25T12:13:23;1.50;;;1.40;;
12228;SDS011;6177;52.402;9.800;2023-04-25T12:16:15;2.43;;;1.37;;
12228;SDS011;6177;52.402;9.800;2023-04-25T12:19:06;3.93;;;0.90;;
12228;SDS011;6177;52.402;9.800;2023-04-25T12:21:57;1.80;;;1.40;;
12228;SDS011;6177;52.402;9.800;2023-04-25T12:24:48;1.33;;;1.23;;
12228;SDS011;6177;52.402;9.800;2023-04-25T12:27:39;1.63;;;0.70;;
12228;SDS011;6177;52.402;9.800;2023-04-25T12:30:50;2.93;;;1.17;;
12228;SDS011;6177;52.402;9.800;2023-04-25T12:33:42;2.13;;;0.70;;
12228;SDS011;6177;52.402;9.800;2023-04-25T12:36:34;1.83;;;0.87;;
12228;SDS011;6177;52.402;9.800;2023-04-25T12:39:25;3.07;;;0.73;;
12228;SDS011;6177;52.402;9.800;2023-04-25T12:42:16;2.60;;;1.07;;
12228;SDS011;6177;52.402;9.800;2023-04-25T12:45:07;0.77;;;0.77;;
12228;SDS011;6177;52.402;9.800;2023-04-25T12:47:59;0.53;;;0.50;;
12228;SDS011;6177;52.402;9.800;2023-04-25T12:50:51;1.23;;;0.60;;
12228;SDS011;6177;52.402;9.800;2023-04-25T12:53:42;0.50;;;0.47;;
12228;SDS011;6177;52.402;9.800;2023-04-25T12:56:34;0.30;;;0.22;;
12228;SDS011;6177;52.402;9.800;2023-04-25T12:59:26;0.30;;;0.30;;
12228;SDS011;6177;52.402;9.800;2023-04-25T13:02:16;2.33;;;0.50;;
12228;SDS011;6177;52.402;9.800;2023-04-25T13:05:07;1.40;;;0.80;;
12228;SDS011;6177;52.402;9.800;2023-04-25T13:07:58;1.13;;;0.70;;
12228;SDS011;6177;52.402;9.800;2023-04-25T13:10:49;1.90;;;0.80;;
12228;SDS011;6177;52.402;9.800;2023-04-25T13:13:40;8.73;;;0.70;;
12228;SDS011;6177;52.402;9.800;2023-04-25T13:16:31;2.40;;;1.10;;
12228;SDS011;6177;52.402;9.800;2023-04-25T13:19:22;1.33;;;0.67;;
12228;SDS011;6177;52.402;9.800;2023-04-25T13:22:13;2.33;;;1.03;;
12228;SDS011;6177;52.402;9.800;2023-04-25T13:25:06;1.20;;;0.70;;
12228;SDS011;6177;52.402;9.800;2023-04-25T13:27:57;2.97;;;1.13;;
12228;SDS011;6177;52.402;9.800;2023-04-25T13:30:48;2.13;;;0.90;;
12228;SDS011;6177;52.402;9.800;2023-04-25T13:33:39;2.30;;;1.25;;
12228;SDS011;6177;52.402;9.800;2023-04-25T13:36:30;1.13;;;0.93;;
12228;SDS011;6177;52.402;9.800;2023-04-25T13:39:22;1.83;;;0.90;;
12228;SDS011;6177;52.402;9.800;2023-04-25T13:42:13;1.30;;;0.90;;
12228;SDS011;6177;52.402;9.800;2023-04-25T13:45:05;2.27;;;1.00;;
12228;SDS011;6177;52.402;9.800;2023-04-25T13:47:57;2.13;;;0.90;;
12228;SDS011;6177;52.402;9.800;2023-04-25T13:50:48;2.10;;;1.10;;
12228;SDS011;6177;52.402;9.800;2023-04-25T13:53:39;5.63;;;1.60;;
12228;SDS011;6177;52.402;9.800;2023-04-25T13:56:30;3.00;;;1.53;;
12228;SDS011;6177;52.402;9.800;2023-04-25T13:59:21;2.07;;;0.77;;
12228;SDS011;6177;52.402;9.800;2023-04-25T14:02:12;1.03;;;0.70;;
12228;SDS011;6177;52.402;9.800;2023-04-25T14:05:03;1.53;;;0.73;;
12228;SDS011;6177;52.402;9.800;2023-04-25T14:07:55;3.90;;;1.30;;
12228;SDS011;6177;52.402;9.800;2023-04-25T14:10:46;0.80;;;0.80;;
12228;SDS011;6177;52.402;9.800;2023-04-25T14:13:37;1.07;;;0.90;;
12228;SDS011;6177;52.402;9.800;2023-04-25T14:16:29;2.20;;;1.10;;
12228;SDS011;6177;52.402;9.800;2023-04-25T14:19:20;2.07;;;1.00;;
12228;SDS011;6177;52.402;9.800;2023-04-25T14:22:11;1.80;;;0.82;;
12228;SDS011;6177;52.402;9.800;2023-04-25T14:25:02;0.70;;;0.70;;
12228;SDS011;6177;52.402;9.800;2023-04-25T14:27:53;1.20;;;0.77;;
12228;SDS011;6177;52.402;9.800;2023-04-25T14:30:44;1.03;;;0.87;;
12228;SDS011;6177;52.402;9.800;2023-04-25T14:33:35;0.90;;;0.73;;
12228;SDS011;6177;52.402;9.800;2023-04-25T14:36:30;1.00;;;0.90;;
12228;SDS011;6177;52.402;9.800;2023-04-25T14:39:22;1.13;;;1.00;;
12228;SDS011;6177;52.402;9.800;2023-04-25T14:42:12;0.70;;;0.70;;
12228;SDS011;6177;52.402;9.800;2023-04-25T14:45:04;0.70;;;0.70;;
12228;SDS011;6177;52.402;9.800;2023-04-25T14:47:55;2.13;;;0.90;;
12228;SDS011;6177;52.402;9.800;2023-04-25T14:50:46;2.65;;;1.17;;
12228;SDS011;6177;52.402;9.800;2023-04-25T14:53:37;2.03;;;1.15;;
12228;SDS011;6177;52.402;9.800;2023-04-25T14:56:28;1.30;;;0.85;;
12228;SDS011;6177;52.402;9.800;2023-04-25T14:59:19;1.83;;;1.05;;
12228;SDS011;6177;52.402;9.800;2023-04-25T15:02:10;1.80;;;1.25;;
12228;SDS011;6177;52.402;9.800;2023-04-25T15:05:01;2.35;;;0.88;;
12228;SDS011;6177;52.402;9.800;2023-04-25T15:07:52;1.80;;;0.93;;
12228;SDS011;6177;52.402;9.800;2023-04-25T15:10:43;1.83;;;1.00;;
12228;SDS011;6177;52.402;9.800;2023-04-25T15:13:35;3.97;;;1.17;;
12228;SDS011;6177;52.402;9.800;2023-04-25T15:16:25;1.67;;;1.07;;
12228;SDS011;6177;52.402;9.800;2023-04-25T15:19:16;1.93;;;0.90;;
12228;SDS011;6177;52.402;9.800;2023-04-25T15:22:07;1.20;;;0.57;;
12228;SDS011;6177;52.402;9.800;2023-04-25T15:24:58;0.97;;;0.97;;
12228;SDS011;6177;52.402;9.800;2023-04-25T15:27:48;0.90;;;0.90;;
12228;SDS011;6177;52.402;9.800;2023-04-25T15:30:45;1.70;;;0.80;;
12228;SDS011;6177;52.402;9.800;2023-04-25T15:33:35;0.80;;;0.80;;
12228;SDS011;6177;52.402;9.800;2023-04-25T15:36:26;2.33;;;0.83;;
12228;SDS011;6177;52.402;9.800;2023-04-25T15:39:17;0.47;;;0.47;;
12228;SDS011;6177;52.402;9.800;2023-04-25T15:42:08;0.65;;;0.65;;
12228;SDS011;6177;52.402;9.800;2023-04-25T15:44:59;1.50;;;0.98;;
12228;SDS011;6177;52.402;9.800;2023-04-25T15:47:50;2.42;;;1.00;;
12228;SDS011;6177;52.402;9.800;2023-04-25T15:50:44;1.85;;;0.95;;
12228;SDS011;6177;52.402;9.800;2023-04-25T15:53:35;1.33;;;1.23;;
12228;SDS011;6177;52.402;9.800;2023-04-25T15:56:26;2.08;;;1.38;;
12228;SDS011;6177;52.402;9.800;2023-04-25T15:59:17;1.45;;;1.35;;
12228;SDS011;6177;52.402;9.800;2023-04-25T16:02:08;1.98;;;1.33;;
12228;SDS011;6177;52.402;9.800;2023-04-25T16:04:59;1.37;;;1.27;;
12228;SDS011;6177;52.402;9.800;2023-04-25T16:07:50;1.07;;;1.03;;
12228;SDS011;6177;52.402;9.800;2023-04-25T16:10:42;2.63;;;1.10;;
12228;SDS011;6177;52.402;9.800;2023-04-25T16:13:33;0.90;;;0.80;;
12228;SDS011;6177;52.402;9.800;2023-04-25T16:16:24;1.00;;;1.00;;
12228;SDS011;6177;52.402;9.800;2023-04-25T16:19:15;1.80;;;1.00;;
12228;SDS011;6177;52.402;9.800;2023-04-25T16:22:06;1.90;;;1.20;;
12228;SDS011;6177;52.402;9.800;2023-04-25T16:24:58;2.87;;;0.90;;
12228;SDS011;6177;52.402;9.800;2023-04-25T16:27:49;2.33;;;0.90;;
12228;SDS011;6177;52.402;9.800;2023-04-25T16:30:41;2.87;;;1.20;;
12228;SDS011;6177;52.402;9.800;2023-04-25T16:33:33;5.97;;;1.43;;
12228;SDS011;6177;52.402;9.800;2023-04-25T16:36:23;1.50;;;1.10;;
12228;SDS011;6177;52.402;9.800;2023-04-25T16:39:15;3.63;;;1.10;;
12228;SDS011;6177;52.402;9.800;2023-04-25T16:42:06;2.80;;;1.20;;
12228;SDS011;6177;52.402;9.800;2023-04-25T16:44:58;3.10;;;1.37;;
12228;SDS011;6177;52.402;9.800;2023-04-25T16:47:50;1.60;;;1.00;;
12228;SDS011;6177;52.402;9.800;2023-04-25T16:50:41;2.47;;;1.13;;
12228;SDS011;6177;52.402;9.800;2023-04-25T16:53:32;2.30;;;1.10;;
12228;SDS011;6177;52.402;9.800;2023-04-25T16:56:23;1.80;;;1.70;;
12228;SDS011;6177;52.402;9.800;2023-04-25T16:59:15;3.00;;;1.33;;
12228;SDS011;6177;52.402;9.800;2023-04-25T17:02:06;3.37;;;1.23;;
12228;SDS011;6177;52.402;9.800;2023-04-25T17:05:01;3.30;;;1.70;;
12228;SDS011;6177;52.402;9.800;2023-04-25T17:07:52;2.67;;;1.30;;
12228;SDS011;6177;52.402;9.800;2023-04-25T17:10:44;2.30;;;1.40;;
12228;SDS011;6177;52.402;9.800;2023-04-25T17:13:34;2.83;;;1.37;;
12228;SDS011;6177;52.402;9.800;2023-04-25T17:16:32;2.83;;;1.60;;
12228;SDS011;6177;52.402;9.800;2023-04-25T17:19:26;2.63;;;1.60;;
12228;SDS011;6177;52.402;9.800;2023-04-25T17:22:17;4.53;;;1.53;;
12228;SDS011;6177;52.402;9.800;2023-04-25T17:25:09;36.80;;;24.03;;
12228;SDS011;6177;52.402;9.800;2023-04-25T17:28:00;10.10;;;6.40;;
12228;SDS011;6177;52.402;9.800;2023-04-25T17:30:51;1.70;;;1.30;;
12228;SDS011;6177;52.402;9.800;2023-04-25T17:33:43;2.90;;;1.40;;
12228;SDS011;6177;52.402;9.800;2023-04-25T17:36:33;1.83;;;1.30;;
12228;SDS011;6177;52.402;9.800;2023-04-25T17:39:24;3.07;;;1.07;;
12228;SDS011;6177;52.402;9.800;2023-04-25T17:42:16;4.50;;;1.47;;
12228;SDS011;6177;52.402;9.800;2023-04-25T17:45:07;3.10;;;1.43;;
12228;SDS011;6177;52.402;9.800;2023-04-25T17:47:59;3.03;;;1.27;;
12228;SDS011;6177;52.402;9.800;2023-04-25T17:50:51;4.57;;;1.77;;
12228;SDS011;6177;52.402;9.800;2023-04-25T17:53:41;3.20;;;1.30;;